createdAt,value
2023-02-12T00:01:24.725Z,0.20
2023-02-12T00:03:52.422Z,0.40
2023-02-12T00:06:20.019Z,0.47
2023-02-12T00:08:50.826Z,0.70
2023-02-12T00:11:21.448Z,0.28
2023-02-12T00:13:49.294Z,0.30
2023-02-12T00:16:18.981Z,0.40
2023-02-12T00:18:47.007Z,0.63
2023-02-12T00:21:14.909Z,0.40
2023-02-12T00:23:42.574Z,0.52
2023-02-12T00:26:12.950Z,0.40
2023-02-12T00:28:40.805Z,0.20
2023-02-12T00:31:14.406Z,0.40
2023-02-12T00:33:42.319Z,0.60
2023-02-12T00:36:13.460Z,0.30
2023-02-12T00:38:41.583Z,0.47
2023-02-12T00:41:09.393Z,0.28
2023-02-12T00:43:36.822Z,0.32
2023-02-12T00:46:05.228Z,0.40
2023-02-12T00:48:33.198Z,0.20
2023-02-12T00:51:00.653Z,0.20
2023-02-12T00:53:28.210Z,0.93
2023-02-12T00:55:57.460Z,0.30
2023-02-12T00:58:25.279Z,0.40
2023-02-12T01:00:54.125Z,0.40
2023-02-12T01:03:21.871Z,0.40
2023-02-12T01:05:49.422Z,1.30
2023-02-12T01:08:17.806Z,0.17
2023-02-12T01:10:45.788Z,0.45
2023-02-12T01:13:14.196Z,0.30
2023-02-12T01:15:42.424Z,0.13
2023-02-12T01:18:10.033Z,0.90
2023-02-12T01:20:37.277Z,0.50
2023-02-12T01:23:06.997Z,0.20
2023-02-12T01:25:34.595Z,0.13
2023-02-12T01:28:01.987Z,0.57
2023-02-12T01:30:29.288Z,0.55
2023-02-12T01:32:57.045Z,0.30
2023-02-12T01:35:24.348Z,0.30
2023-02-12T01:37:51.783Z,0.40
2023-02-12T01:40:19.339Z,0.30
2023-02-12T01:42:47.001Z,0.60
2023-02-12T01:45:14.648Z,0.85
2023-02-12T01:47:43.471Z,0.40
2023-02-12T01:50:21.313Z,0.77
2023-02-12T01:52:59.182Z,0.28
2023-02-12T01:55:27.908Z,0.30
2023-02-12T01:57:56.181Z,0.80
2023-02-12T02:00:24.963Z,0.30
2023-02-12T02:02:58.840Z,0.47
2023-02-12T02:05:41.906Z,0.20
2023-02-12T02:08:10.186Z,0.17
2023-02-12T02:10:37.851Z,0.40
2023-02-12T02:13:23.642Z,0.20
2023-02-12T02:15:57.857Z,0.30
2023-02-12T02:18:44.847Z,0.28
2023-02-12T02:21:41.381Z,0.60
2023-02-12T02:24:37.774Z,0.28
2023-02-12T02:27:26.003Z,0.50
2023-02-12T02:30:27.209Z,1.38
2023-02-12T02:33:25.578Z,0.30
2023-02-12T02:36:11.194Z,0.30
2023-02-12T02:38:41.742Z,0.30
2023-02-12T02:41:34.249Z,0.25
2023-02-12T02:44:04.461Z,0.30
2023-02-12T02:49:11.032Z,0.30
2023-02-12T02:51:43.507Z,0.20
2023-02-12T02:54:23.364Z,0.35
2023-02-12T02:56:58.202Z,0.90
2023-02-12T02:59:31.866Z,0.80
2023-02-12T03:02:08.988Z,0.17
2023-02-12T03:04:57.939Z,0.20
2023-02-12T03:07:36.968Z,0.52
2023-02-12T03:10:11.398Z,0.22
2023-02-12T03:13:01.989Z,0.30
2023-02-12T03:15:37.824Z,0.30
2023-02-12T03:18:10.286Z,0.88
2023-02-12T03:20:44.472Z,0.20
2023-02-12T03:23:15.691Z,0.20
2023-02-12T03:26:18.363Z,0.30
2023-02-12T03:28:46.050Z,0.15
2023-02-12T03:31:49.284Z,0.20
2023-02-12T03:34:26.331Z,0.30
2023-02-12T03:37:05.334Z,0.35
2023-02-12T03:39:45.076Z,0.20
2023-02-12T03:42:29.510Z,0.30
2023-02-12T03:45:10.233Z,0.85
2023-02-12T03:47:43.547Z,0.20
2023-02-12T03:50:24.671Z,0.40
2023-02-12T03:52:52.419Z,0.32
2023-02-12T03:55:23.105Z,0.50
2023-02-12T03:57:55.948Z,0.40
2023-02-12T04:00:25.590Z,0.43
2023-02-12T04:02:54.489Z,0.47
2023-02-12T04:05:26.597Z,0.20
2023-02-12T04:07:56.562Z,0.45
2023-02-12T04:10:46.826Z,0.40
2023-02-12T04:13:33.846Z,0.28
2023-02-12T04:16:01.506Z,0.45
2023-02-12T04:18:52.400Z,0.50
2023-02-12T04:21:34.865Z,0.22
2023-02-12T04:24:39.560Z,0.30
2023-02-12T04:27:43.823Z,0.30
2023-02-12T04:30:37.871Z,0.28
2023-02-12T04:33:08.557Z,0.30
2023-02-12T04:35:55.534Z,0.40
2023-02-12T04:39:03.708Z,0.40
2023-02-12T04:41:31.655Z,0.45
2023-02-12T04:43:59.308Z,0.35
2023-02-12T04:46:27.215Z,0.35
2023-02-12T04:48:57.301Z,0.32
2023-02-12T04:51:24.965Z,0.32
2023-02-12T04:53:52.692Z,0.38
2023-02-12T04:56:21.127Z,0.38
2023-02-12T04:58:49.733Z,0.40
2023-02-12T05:01:17.255Z,0.13
2023-02-12T05:03:44.782Z,0.40
2023-02-12T05:06:12.242Z,0.50
2023-02-12T05:08:39.838Z,0.50
2023-02-12T05:11:09.174Z,0.20
2023-02-12T05:13:37.811Z,0.43
2023-02-12T05:16:06.625Z,0.30
2023-02-12T05:18:35.267Z,0.25
2023-02-12T05:21:04.548Z,0.00
2023-02-12T05:23:34.263Z,0.30
2023-02-12T05:26:05.062Z,0.30
2023-02-12T05:28:32.881Z,0.40
2023-02-12T05:31:01.992Z,0.35
2023-02-12T05:33:29.718Z,0.30
2023-02-12T05:35:57.287Z,0.55
2023-02-12T05:38:25.113Z,0.43
2023-02-12T05:40:52.842Z,0.65
2023-02-12T05:43:23.210Z,0.38
2023-02-12T05:45:50.624Z,0.43
2023-02-12T05:48:18.328Z,0.55
2023-02-12T05:50:45.802Z,0.55
2023-02-12T05:53:13.196Z,0.28
2023-02-12T05:55:41.449Z,0.43
2023-02-12T05:58:08.862Z,0.30
2023-02-12T06:00:37.684Z,0.50
2023-02-12T06:03:05.304Z,0.22
2023-02-12T06:05:32.897Z,0.47
2023-02-12T06:08:00.508Z,0.93
2023-02-12T06:10:27.719Z,0.40
2023-02-12T06:12:56.105Z,0.52
2023-02-12T06:15:23.920Z,0.40
2023-02-12T06:17:51.480Z,0.30
2023-02-12T06:20:19.059Z,0.50
2023-02-12T06:22:46.216Z,0.30
2023-02-12T06:25:13.804Z,0.30
2023-02-12T06:27:41.426Z,0.22
2023-02-12T06:30:09.825Z,1.05
2023-02-12T06:32:37.272Z,0.30
2023-02-12T06:35:04.930Z,0.40
2023-02-12T06:37:32.868Z,0.30
2023-02-12T06:40:03.006Z,1.02
2023-02-12T06:42:32.977Z,0.45
2023-02-12T06:45:00.427Z,0.80
2023-02-12T06:47:28.296Z,0.30
2023-02-12T06:49:55.916Z,0.77
2023-02-12T06:52:23.394Z,0.40
2023-02-12T06:54:51.532Z,0.70
2023-02-12T06:57:18.945Z,0.50
2023-02-12T06:59:46.840Z,0.73
2023-02-12T07:02:14.553Z,0.60
2023-02-12T07:04:42.000Z,0.25
2023-02-12T07:07:09.469Z,0.60
2023-02-12T07:09:37.068Z,0.30
2023-02-12T07:12:04.730Z,0.70
2023-02-12T07:14:32.388Z,0.43
2023-02-12T07:17:03.833Z,0.40
2023-02-12T07:19:34.716Z,0.20
2023-02-12T07:22:02.318Z,0.38
2023-02-12T07:24:29.950Z,0.30
2023-02-12T07:26:57.984Z,0.50
2023-02-12T07:29:25.491Z,0.30
2023-02-12T07:31:53.058Z,0.63
2023-02-12T07:34:20.954Z,0.35
2023-02-12T07:36:48.626Z,0.43
2023-02-12T07:39:16.139Z,0.85
2023-02-12T07:41:43.662Z,0.47
2023-02-12T07:44:12.887Z,0.30
2023-02-12T07:46:48.173Z,0.32
2023-02-12T07:49:23.242Z,0.28
2023-02-12T07:51:51.486Z,0.57
2023-02-12T07:54:19.123Z,0.30
2023-02-12T07:56:47.604Z,0.77
2023-02-12T07:59:17.622Z,0.35
2023-02-12T08:04:21.439Z,0.40
2023-02-12T08:06:50.798Z,0.95
2023-02-12T08:09:21.484Z,0.50
2023-02-12T08:11:50.263Z,0.98
2023-02-12T08:14:19.342Z,0.30
2023-02-12T08:16:47.676Z,0.40
2023-02-12T08:19:20.141Z,0.40
2023-02-12T08:21:53.659Z,0.30
2023-02-12T08:24:22.350Z,0.50
2023-02-12T08:26:49.917Z,0.52
2023-02-12T08:29:26.670Z,0.30
2023-02-12T08:32:04.303Z,0.25
2023-02-12T08:34:35.771Z,0.63
2023-02-12T08:37:05.983Z,0.40
2023-02-12T08:39:33.524Z,0.47
2023-02-12T08:42:01.845Z,1.25
2023-02-12T08:44:29.596Z,0.57
2023-02-12T08:46:57.199Z,1.30
2023-02-12T08:49:32.375Z,0.10
2023-02-12T08:52:01.947Z,0.40
2023-02-12T08:54:31.149Z,0.30
2023-02-12T08:57:00.827Z,0.40
2023-02-12T08:59:29.198Z,0.40
2023-02-12T09:01:56.752Z,0.88
2023-02-12T09:04:27.067Z,0.47
2023-02-12T09:06:54.879Z,0.40
2023-02-12T09:09:22.377Z,0.40
2023-02-12T09:11:49.892Z,0.20
2023-02-12T09:14:19.011Z,0.50
2023-02-12T09:16:46.723Z,0.30
2023-02-12T09:19:18.354Z,0.55
2023-02-12T09:21:45.968Z,0.90
2023-02-12T09:24:13.553Z,1.33
2023-02-12T09:26:41.302Z,0.70
2023-02-12T09:29:11.193Z,0.25
2023-02-12T09:34:07.378Z,0.20
2023-02-12T09:36:37.988Z,0.30
2023-02-12T09:39:05.742Z,0.73
2023-02-12T09:41:42.823Z,0.40
2023-02-12T09:44:26.161Z,0.20
2023-02-12T09:47:06.053Z,1.35
2023-02-12T09:49:47.614Z,0.22
2023-02-12T09:52:18.162Z,0.17
2023-02-12T09:54:46.453Z,0.70
2023-02-12T09:57:31.274Z,0.30
2023-02-12T10:00:08.366Z,1.00
2023-02-12T10:02:37.737Z,1.00
2023-02-12T10:05:14.768Z,0.38
2023-02-12T10:07:42.422Z,1.40
2023-02-12T10:10:38.881Z,0.30
2023-02-12T10:13:37.956Z,0.45
2023-02-12T10:16:25.577Z,0.30
2023-02-12T10:19:25.219Z,0.50
2023-02-12T10:22:25.885Z,0.50
2023-02-12T10:25:26.602Z,1.15
2023-02-12T10:27:56.720Z,0.50
2023-02-12T10:31:06.254Z,0.20
2023-02-12T10:33:42.579Z,0.40
2023-02-12T10:36:33.929Z,0.52
2023-02-12T10:39:24.146Z,1.00
2023-02-12T10:42:11.773Z,0.50
2023-02-12T10:44:39.262Z,0.90
2023-02-12T10:47:08.696Z,1.83
2023-02-12T10:49:36.158Z,1.80
2023-02-12T10:52:06.314Z,2.97
2023-02-12T10:54:36.872Z,1.52
2023-02-12T10:57:31.659Z,2.20
2023-02-12T11:00:23.611Z,2.20
2023-02-12T11:03:13.808Z,2.10
2023-02-12T11:05:43.854Z,1.88
2023-02-12T11:08:37.909Z,1.63
2023-02-12T11:11:26.625Z,1.70
2023-02-12T11:14:20.317Z,1.20
2023-02-12T11:16:57.625Z,1.85
2023-02-12T11:19:30.346Z,1.20
2023-02-12T11:22:19.045Z,1.40
2023-02-12T11:24:47.158Z,1.98
2023-02-12T11:27:17.535Z,1.20
2023-02-12T11:29:49.041Z,1.30
2023-02-12T11:32:18.560Z,1.10
2023-02-12T11:35:06.999Z,1.50
2023-02-12T11:40:03.722Z,1.52
2023-02-12T11:42:33.835Z,1.00
2023-02-12T11:45:01.651Z,1.08
2023-02-12T11:47:35.511Z,0.88
2023-02-12T11:50:16.180Z,1.10
2023-02-12T11:52:44.762Z,0.90
2023-02-12T11:55:27.792Z,0.90
2023-02-12T11:58:14.283Z,0.60
2023-02-12T12:01:20.289Z,1.52
2023-02-12T12:04:03.246Z,0.52
2023-02-12T12:06:39.311Z,0.57
2023-02-12T12:11:40.282Z,0.75
2023-02-12T12:14:55.674Z,0.85
2023-02-12T12:17:45.558Z,0.80
2023-02-12T12:20:25.286Z,0.63
2023-02-12T12:23:05.479Z,0.70
2023-02-12T12:25:55.609Z,1.23
2023-02-12T12:28:47.501Z,1.15
2023-02-12T12:31:34.965Z,2.65
2023-02-12T12:34:22.239Z,1.40
2023-02-12T12:37:23.804Z,1.88
2023-02-12T12:40:15.991Z,2.42
2023-02-12T12:43:10.623Z,1.50
2023-02-12T12:48:43.084Z,1.67
2023-02-12T12:51:19.866Z,1.70
2023-02-12T12:53:53.586Z,3.47
2023-02-12T12:56:48.315Z,1.50
2023-02-12T12:59:48.836Z,1.95
2023-02-12T13:02:28.867Z,2.33
2023-02-12T13:05:20.868Z,3.03
2023-02-12T13:07:54.973Z,2.65
2023-02-12T13:10:47.350Z,2.00
2023-02-12T13:13:33.394Z,2.00
2023-02-12T13:16:15.940Z,1.50
2023-02-12T13:18:59.180Z,1.90
2023-02-12T13:21:35.935Z,1.80
2023-02-12T13:25:17.260Z,2.00
2023-02-12T13:27:45.851Z,2.08
2023-02-12T13:30:16.182Z,2.15
2023-02-12T13:32:48.434Z,2.25
2023-02-12T13:35:22.229Z,2.50
2023-02-12T13:37:54.396Z,1.98
2023-02-12T13:40:27.960Z,1.65
2023-02-12T13:43:03.277Z,2.08
2023-02-12T13:46:06.865Z,1.88
2023-02-12T13:48:49.794Z,1.25
2023-02-12T13:51:47.375Z,1.20
2023-02-12T13:54:57.346Z,1.95
2023-02-12T13:57:25.468Z,1.40
2023-02-12T13:59:54.410Z,1.58
2023-02-12T14:02:36.399Z,1.10
2023-02-12T14:05:18.991Z,1.70
2023-02-12T14:07:48.852Z,1.60
2023-02-12T14:10:31.775Z,1.80
2023-02-12T14:13:10.699Z,1.27
2023-02-12T14:15:53.167Z,1.15
2023-02-12T14:18:23.967Z,1.40
2023-02-12T14:21:16.453Z,1.08
2023-02-12T14:23:44.763Z,1.50
2023-02-12T14:26:14.785Z,1.30
2023-02-12T14:31:21.422Z,1.50
2023-02-12T14:36:40.813Z,1.67
2023-02-12T14:39:20.933Z,2.15
2023-02-12T14:41:55.584Z,0.98
2023-02-12T14:44:23.435Z,1.67
2023-02-12T14:46:52.918Z,1.27
2023-02-12T14:49:29.968Z,1.73
2023-02-12T14:51:57.634Z,1.73
2023-02-12T14:54:46.474Z,1.15
2023-02-12T14:57:26.448Z,1.10
2023-02-12T14:59:56.777Z,1.70
2023-02-12T15:02:26.853Z,1.45
2023-02-12T15:04:57.627Z,2.00
2023-02-12T15:07:38.315Z,1.55
2023-02-12T15:10:10.808Z,1.30
2023-02-12T15:12:43.316Z,1.30
2023-02-12T15:15:48.840Z,1.20
2023-02-12T15:18:43.627Z,1.30
2023-02-12T15:21:34.414Z,2.25
2023-02-12T15:24:08.020Z,0.95
2023-02-12T15:27:01.546Z,1.08
2023-02-12T15:29:31.217Z,1.65
2023-02-12T15:32:04.573Z,0.88
2023-02-12T15:34:34.308Z,1.50
2023-02-12T15:37:04.060Z,1.80
2023-02-12T15:39:40.854Z,1.40
2023-02-12T15:42:34.348Z,1.40
2023-02-12T15:45:19.570Z,1.45
2023-02-12T15:48:03.009Z,1.25
2023-02-12T15:50:31.627Z,1.13
2023-02-12T15:52:59.366Z,1.42
2023-02-12T15:55:31.676Z,1.08
2023-02-12T15:58:01.140Z,1.00
2023-02-12T16:00:43.378Z,1.35
2023-02-12T16:03:21.700Z,2.10
2023-02-12T16:05:50.576Z,1.30
2023-02-12T16:08:20.031Z,1.20
2023-02-12T16:10:52.042Z,1.13
2023-02-12T16:13:21.962Z,1.50
2023-02-12T16:16:04.632Z,1.23
2023-02-12T16:18:32.528Z,1.42
2023-02-12T16:21:17.491Z,0.90
2023-02-12T16:23:46.266Z,1.25
2023-02-12T16:26:19.355Z,1.15
2023-02-12T16:28:49.063Z,1.30
2023-02-12T16:31:17.096Z,1.30
2023-02-12T16:33:48.859Z,1.30
2023-02-12T16:36:25.387Z,1.65
2023-02-12T16:38:54.713Z,1.27
2023-02-12T16:41:32.565Z,1.65
2023-02-12T16:44:03.228Z,1.85
2023-02-12T16:46:44.120Z,1.10
2023-02-12T16:49:16.642Z,1.30
2023-02-12T16:51:45.037Z,1.45
2023-02-12T16:54:41.987Z,1.20
2023-02-12T16:57:12.288Z,1.38
2023-02-12T16:59:43.399Z,0.90
2023-02-12T17:02:15.350Z,1.00
2023-02-12T17:04:43.086Z,1.85
2023-02-12T17:07:19.397Z,1.25
2023-02-12T17:09:47.091Z,1.88
2023-02-12T17:12:17.155Z,0.90
2023-02-12T17:17:12.510Z,1.00
2023-02-12T17:19:40.187Z,1.20
2023-02-12T17:22:09.089Z,0.90
2023-02-12T17:24:36.971Z,1.00
2023-02-12T17:27:04.757Z,1.00
2023-02-12T17:29:32.580Z,0.90
2023-02-12T17:32:00.471Z,1.20
2023-02-12T17:34:32.044Z,1.10
2023-02-12T17:39:32.298Z,0.82
2023-02-12T17:42:02.225Z,1.00
2023-02-12T17:44:29.984Z,1.83
2023-02-12T17:46:59.071Z,0.70
2023-02-12T17:49:26.666Z,0.80
2023-02-12T17:51:54.396Z,0.80
2023-02-12T17:54:22.249Z,0.95
2023-02-12T17:56:53.198Z,0.75
2023-02-12T17:59:22.175Z,0.75
2023-02-12T18:01:49.894Z,0.73
2023-02-12T18:04:17.623Z,1.17
2023-02-12T18:06:45.327Z,0.70
2023-02-12T18:09:12.857Z,0.60
2023-02-12T18:11:42.303Z,0.90
2023-02-12T18:14:11.955Z,0.88
2023-02-12T18:16:39.767Z,1.50
2023-02-12T18:19:07.616Z,1.40
2023-02-12T18:21:35.327Z,0.90
2023-02-12T18:24:03.088Z,0.73
2023-02-12T18:26:30.748Z,0.80
2023-02-12T18:28:58.805Z,0.73
2023-02-12T18:31:26.977Z,0.68
2023-02-12T18:33:54.955Z,1.00
2023-02-12T18:36:22.847Z,0.80
2023-02-12T18:38:51.599Z,0.93
2023-02-12T18:41:23.850Z,0.70
2023-02-12T18:43:51.713Z,1.10
2023-02-12T18:46:21.754Z,0.93
2023-02-12T18:51:19.761Z,0.90
2023-02-12T18:53:47.476Z,0.93
2023-02-12T18:56:15.562Z,1.45
2023-02-12T18:58:43.721Z,0.98
2023-02-12T19:01:19.249Z,0.50
2023-02-12T19:03:48.740Z,0.95
2023-02-12T19:06:16.677Z,0.75
2023-02-12T19:08:44.477Z,0.77
2023-02-12T19:11:14.796Z,0.70
2023-02-12T19:13:43.199Z,0.80
2023-02-12T19:16:15.945Z,0.70
2023-02-12T19:18:43.764Z,0.40
2023-02-12T19:21:13.579Z,0.65
2023-02-12T19:23:41.195Z,1.00
2023-02-12T19:26:11.175Z,0.60
2023-02-12T19:28:39.089Z,0.70
2023-02-12T19:31:15.433Z,0.35
2023-02-12T19:33:43.934Z,1.05
2023-02-12T19:36:15.552Z,0.70
2023-02-12T19:38:43.332Z,0.85
2023-02-12T19:41:18.640Z,0.63
2023-02-12T19:43:46.237Z,0.77
2023-02-12T19:46:15.156Z,0.38
2023-02-12T19:48:43.253Z,0.68
2023-02-12T19:51:19.684Z,1.10
2023-02-12T19:53:48.059Z,0.50
2023-02-12T19:56:17.287Z,0.63
2023-02-12T19:58:45.174Z,0.82
2023-02-12T20:01:15.105Z,0.60
2023-02-12T20:03:42.842Z,1.08
2023-02-12T20:06:12.094Z,0.60
2023-02-12T20:08:40.276Z,0.57
2023-02-12T20:11:08.992Z,0.52
2023-02-12T20:13:36.729Z,0.68
2023-02-12T20:16:05.500Z,0.52
2023-02-12T20:18:33.311Z,0.60
2023-02-12T20:21:01.170Z,0.47
2023-02-12T20:23:29.088Z,0.50
2023-02-12T20:25:56.782Z,0.60
2023-02-12T20:28:24.492Z,0.50
2023-02-12T20:30:52.408Z,0.60
2023-02-12T20:33:20.219Z,0.40
2023-02-12T20:35:47.889Z,0.55
2023-02-12T20:38:15.710Z,0.40
2023-02-12T20:40:43.546Z,0.60
2023-02-12T20:43:11.237Z,0.70
2023-02-12T20:45:39.315Z,0.60
2023-02-12T20:48:07.051Z,0.70
2023-02-12T20:50:35.033Z,0.50
2023-02-12T20:53:03.209Z,0.52
2023-02-12T20:55:31.899Z,0.60
2023-02-12T20:57:59.750Z,0.45
2023-02-12T21:00:27.453Z,0.68
2023-02-12T21:02:55.327Z,0.40
2023-02-12T21:05:23.260Z,0.50
2023-02-12T21:07:51.278Z,0.57
2023-02-12T21:10:19.026Z,0.57
2023-02-12T21:12:46.844Z,0.50
2023-02-12T21:15:14.424Z,0.40
2023-02-12T21:17:42.195Z,0.60
2023-02-12T21:20:10.022Z,0.50
2023-02-12T21:22:37.692Z,0.30
2023-02-12T21:25:07.713Z,0.63
2023-02-12T21:27:40.663Z,0.52
2023-02-12T21:30:09.790Z,0.63
2023-02-12T21:32:37.432Z,0.40
2023-02-12T21:35:05.116Z,0.80
2023-02-12T21:37:32.829Z,0.70
2023-02-12T21:40:00.484Z,1.17
2023-02-12T21:42:30.293Z,0.47
2023-02-12T21:44:58.821Z,1.23
2023-02-12T21:47:27.387Z,0.40
2023-02-12T21:49:57.759Z,1.70
2023-02-12T21:52:28.472Z,0.40
2023-02-12T21:54:57.133Z,1.30
2023-02-12T21:57:24.844Z,0.30
2023-02-12T21:59:53.131Z,0.95
2023-02-12T22:02:21.020Z,0.40
2023-02-12T22:04:49.380Z,0.85
2023-02-12T22:07:17.042Z,0.40
2023-02-12T22:09:44.872Z,0.25
2023-02-12T22:12:12.645Z,0.55
2023-02-12T22:14:40.381Z,0.40
2023-02-12T22:17:08.151Z,0.50
2023-02-12T22:19:36.117Z,0.40
2023-02-12T22:22:03.752Z,0.73
2023-02-12T22:24:31.564Z,0.47
2023-02-12T22:26:59.426Z,0.80
2023-02-12T22:29:27.145Z,0.60
2023-02-12T22:31:54.879Z,0.68
2023-02-12T22:34:22.675Z,0.60
2023-02-12T22:36:50.453Z,0.52
2023-02-12T22:39:18.201Z,0.30
2023-02-12T22:41:46.145Z,0.40
2023-02-12T22:44:14.299Z,0.80
2023-02-12T22:46:42.584Z,0.45
2023-02-12T22:49:10.413Z,0.50
2023-02-12T22:51:39.698Z,0.47
2023-02-12T22:54:08.053Z,0.50
2023-02-12T22:56:35.995Z,0.95
2023-02-12T22:59:06.456Z,0.45
2023-02-12T23:01:34.308Z,0.50
2023-02-12T23:04:02.016Z,0.80
2023-02-12T23:06:30.640Z,0.30
2023-02-12T23:09:02.828Z,0.28
2023-02-12T23:11:31.198Z,0.40
2023-02-12T23:13:58.889Z,0.43
2023-02-12T23:16:26.688Z,0.73
2023-02-12T23:19:01.338Z,0.40
2023-02-12T23:21:29.856Z,0.32
2023-02-12T23:23:59.212Z,0.60
2023-02-12T23:26:27.619Z,0.52
2023-02-12T23:28:55.366Z,0.50
2023-02-12T23:31:23.311Z,0.68
2023-02-12T23:33:51.150Z,0.43
2023-02-12T23:36:18.990Z,0.32
2023-02-12T23:38:46.757Z,0.70
2023-02-12T23:41:14.535Z,0.50
2023-02-12T23:43:42.363Z,0.90
2023-02-12T23:46:09.994Z,0.88
2023-02-12T23:48:37.570Z,0.77
2023-02-12T23:51:05.390Z,0.60
2023-02-12T23:53:33.181Z,0.30
2023-02-12T23:56:01.926Z,0.50
2023-02-12T23:58:29.933Z,1.17
